Latest Coastal Weather Observations for Nullarbor

IDS60701

Issued at 5:05 am CST Friday 1 August 2014 (issued every 10 minutes, with the page automatically refreshed every 10 minutes)

About coastal observations | Map of coastal stations | Coastal observations for SA | Marine services | Other Formats
Station Details ID: 018106 Name: NULLARBOR Lat: -31.45 Lon: 130.90 Height: 64.0 m
Data from the previous 72 hours. | See also: Recent months at Nullarbor
Date/Time
CST
Temp

°C
Wind Pressure Rain
since 9am
mm
Weather Cloud Vis
km
Sea
Height
m
Swell
Dir
 
Speed
knots
Gust
knots
hPa Trend Height
m
Period
s
Dir
01/05:00am 8.8 SSW 10 13 1024.1 - 1.2 - - 10 - - - -
01/04:30am 9.0 SW 10 12 1023.9 - 1.2 - Partly cloudy 10 - - - -
01/04:00am 9.3 SW 10 13 1024.0 - 1.2 - Partly cloudy 10 - - - -
01/03:30am 9.0 SSW 12 15 1023.8 - 1.2 - Partly cloudy 10 - - - -
01/03:23am 9.3 SSW 14 20 1023.8 - 1.2 - Partly cloudy 10 - - - -
01/03:13am 9.4 SSW 19 22 1023.8 - 1.2 - Partly cloudy 7 - - - -
01/03:00am 9.5 SW 20 25 1024.0 - 1.0 Rain Cloudy 4 - - - -
01/02:53am 9.6 WSW 10 24 1024.0 - 0.8 - Partly cloudy 7 - - - -
01/02:30am 9.6 WSW 11 15 1023.7 - 0.4 - Partly cloudy 10 - - - -
01/02:27am 9.7 SW 12 15 1023.6 - 0.4 - Partly cloudy 10 - - - -
01/02:13am 9.8 WSW 18 28 1023.8 - 0.4 - Partly cloudy 5 - - - -
01/02:08am 9.9 SW 21 28 1023.9 - 0.4 - Partly cloudy 7 - - - -
01/02:06am 10.2 SW 21 28 1023.8 - 0.4 - Partly cloudy 10 - - - -
01/02:00am 10.3 WSW 11 13 1023.6 - 0.4 - Partly cloudy 10 - - - -
01/01:30am 10.5 WSW 12 17 1023.8 - 0.4 - Partly cloudy 10 - - - -
01/01:00am 11.1 WSW 15 25 1023.6 - 0.4 - Partly cloudy 10 - - - -
01/12:30am 11.2 WSW 15 21 1023.6 - 0.4 - Partly cloudy 10 - - - -
01/12:12am 12.2 WSW 15 27 1023.5 - 0.4 - Cloudy 10 - - - -
01/12:00am 12.2 SW 16 21 1023.4 - 0.4 - Mostly cloudy 10 - - - -
 
Date/Time
CST
Temp

°C
Wind Pressure Rain
since 9am
mm
Weather Cloud Vis
km
Sea
Height
m
Swell
Dir
 
Speed
knots
Gust
knots
hPa Trend Height
m
Period
s
Dir
31/11:30pm 12.3 WSW 17 23 1023.5 - 0.4 - Cloudy 10 - - - -
31/11:00pm 12.1 WSW 17 22 1023.2 - 0.4 - Cloudy 10 - - - -
31/10:30pm 12.0 WSW 15 20 1023.1 - 0.4 - Cloudy 10 - - - -
31/10:00pm 11.9 SW 16 21 1022.7 - 0.4 - Cloudy 10 - - - -
31/09:30pm 11.9 WSW 18 25 1022.7 - 0.4 - Partly cloudy 10 - - - -
31/09:00pm 12.2 SW 16 24 1022.2 - 0.4 - Mostly cloudy 10 - - - -
31/08:30pm 11.8 SW 16 21 1022.1 - 0.4 - Cloudy 10 - - - -
31/08:00pm 11.7 WSW 15 21 1021.7 - 0.4 - Cloudy 10 - - - -
31/07:41pm 12.0 WSW 16 26 1021.3 - 0.4 - Partly cloudy 10 - - - -
31/07:30pm 11.6 WSW 14 21 1021.4 - 0.4 - Partly cloudy 10 - - - -
31/07:08pm 11.0 WSW 11 15 1021.1 - 0.4 - Partly cloudy 10 - - - -
31/07:00pm 10.9 WSW 12 16 1021.0 - 0.4 - Partly cloudy 9 - - - -
31/06:50pm 10.8 WSW 13 18 1021.1 - 0.2 - Partly cloudy 7 - - - -
31/06:38pm 10.8 WSW 12 17 1020.9 - 0.2 - Partly cloudy 10 - - - -
31/06:30pm 11.0 WSW 15 23 1020.9 - 0.2 - Partly cloudy 9 - - - -
31/06:22pm 10.8 SW 19 25 1020.7 - 0.2 - Partly cloudy 7 - - - -
31/06:00pm 12.8 WSW 15 24 1020.3 - 0.2 - Mostly cloudy 10 - - - -
31/05:30pm 13.0 WSW 19 26 1019.9 - 0.2 - Cloudy 10 - - - -
31/05:00pm 13.1 WSW 15 22 1019.4 - 0.2 - Partly cloudy 10 - - - -
31/04:39pm 13.8 WSW 19 30 1019.1 - 0.2 - Partly cloudy 10 - - - -
31/04:30pm 14.6 WSW 21 29 1019.1 - 0.2 - Partly cloudy 10 - - - -
31/04:20pm 14.5 WSW 21 31 1018.9 - 0.2 - Partly cloudy 10 - - - -
31/04:00pm 14.7 WSW 21 28 1018.6 - 0.2 - Partly cloudy 10 - - - -
31/03:32pm 14.8 WSW 21 34 1018.3 - 0.2 - Partly cloudy 10 - - - -
31/03:30pm 15.2 WSW 21 28 1018.4 - 0.2 - Partly cloudy 10 - - - -
31/03:09pm 14.4 SW 21 31 1018.2 - 0.2 - Partly cloudy 10 - - - -
31/03:00pm 13.3 WSW 24 31 1018.3 - 0.2 - Cloudy 8 - - - -
31/02:30pm 15.0 WSW 25 33 1017.8 - 0.2 - Partly cloudy 10 - - - -
31/02:05pm 14.1 WSW 22 32 1017.7 - 0.2 - Partly cloudy 10 - - - -
31/02:00pm 15.1 WSW 19 30 1017.6 - 0.2 - Partly cloudy 10 - - - -
31/01:46pm 13.9 WSW 22 35 1017.6 - 0.2 - Partly cloudy 7 - - - -
31/01:44pm 15.3 WSW 21 32 1017.4 - 0.2 - Partly cloudy 10 - - - -
31/01:30pm 15.9 WSW 21 29 1017.5 - 0.2 - Partly cloudy 10 - - - -
31/01:24pm 16.0 WSW 22 32 1017.5 - 0.0 - Partly cloudy 10 - - - -
31/01:00pm 17.0 WSW 21 28 1017.3 - 0.0 - Partly cloudy 10 - - - -
31/12:48pm 15.5 WSW 19 27 1017.5 - 0.0 - Partly cloudy 10 - - - -
31/12:30pm 14.5 WSW 19 26 1017.8 - 0.0 - Partly cloudy 7 - - - -
31/12:25pm 14.4 WSW 19 26 1017.6 - 0.0 - Partly cloudy 7 - - - -
31/12:23pm 14.6 WSW 19 24 1017.6 - 0.0 - Partly cloudy 8 - - - -
31/12:07pm 13.9 WSW 20 27 1017.6 - 0.0 - Partly cloudy 5 - - - -
31/12:00pm 13.8 WSW 21 28 1017.8 - 0.0 - Cloudy 4 - - - -
31/11:55am 13.6 WSW 23 33 1017.6 - 0.0 - Partly cloudy 4 - - - -
31/11:46am 13.1 WSW 25 34 1017.6 - 0.0 - Partly cloudy 2 - - - -
31/11:31am 14.9 WSW 26 36 1017.1 - 0.0 - Partly cloudy 6 - - - -
31/11:30am 14.6 WSW 26 36 1017.1 - 0.0 - Partly cloudy 8 - - - -
31/11:02am 15.9 W 23 33 1016.7 - 0.0 - Partly cloudy 10 - - - -
31/11:00am 15.9 W 23 30 1016.6 - 0.0 - Partly cloudy 10 - - - -
31/10:30am 15.4 W 20 25 1016.4 - 0.0 - - 10 - - - -
31/10:00am 14.4 W 19 25 1016.1 - 0.0 - - 10 - - - -
31/09:30am 13.2 W 17 23 1015.9 - 0.0 - - 10 - - - -
31/09:00am 12.1 WNW 16 22 1015.4 - 0.0 - - 10 - - - -
31/08:30am 10.3 WNW 12 15 1015.2 - 0.0 - - 10 - - - -
31/08:00am 8.7 WNW 11 13 1015.0 - 0.0 - - 10 - - - -
31/07:30am 8.5 WNW 12 15 1014.6 - 0.0 - - 10 - - - -
31/07:00am 8.2 WNW 11 14 1014.3 - 0.0 - - 10 - - - -
31/06:30am 8.2 NW 11 14 1013.9 - 0.0 - - 10 - - - -
31/06:00am 8.5 NW 12 15 1013.6 - 0.0 - - 10 - - - -
31/05:30am 8.6 NW 12 15 1013.6 - 0.0 - - 10 - - - -
31/05:00am 8.3 NW 10 13 1013.7 - 0.0 - - 10 - - - -
31/04:30am 8.1 NW 9 11 1013.7 - 0.0 - - 10 - - - -
31/04:00am 7.7 NNW 10 12 1013.7 - 0.0 - - 10 - - - -
31/03:30am 8.3 NNW 10 13 1013.9 - 0.0 - - 10 - - - -
31/03:00am 8.4 NW 9 10 1014.3 - 0.0 - - 10 - - - -
31/02:30am 8.5 NW 9 11 1014.6 - 0.0 - - 10 - - - -
31/02:00am 7.7 NW 9 11 1015.0 - 0.0 - - 10 - - - -
31/01:30am 7.0 NNW 9 11 1015.0 - 0.0 - - 10 - - - -
31/01:00am 6.3 NNW 8 10 1015.4 - 0.0 - - 10 - - - -
31/12:30am 6.8 NNW 8 10 1015.8 - 0.0 - - 10 - - - -
31/12:00am 7.2 NNW 9 10 1015.9 - 0.0 - - 10 - - - -
 
Date/Time
CST
Temp

°C
Wind Pressure Rain
since 9am
mm
Weather Cloud Vis
km
Sea
Height
m
Swell
Dir
 
Speed
knots
Gust
knots
hPa Trend Height
m
Period
s
Dir
30/11:30pm 8.5 NW 7 9 1016.1 - 0.0 - - 10 - - - -
30/11:00pm 8.7 NW 8 9 1016.2 - 0.0 - - 10 - - - -
30/10:30pm 9.1 WNW 7 8 1016.7 - 0.0 - - 10 - - - -
30/10:00pm 9.5 NW 8 10 1016.6 - 0.0 - - 10 - - - -
30/09:30pm 8.5 NW 7 7 1016.7 - 0.0 - - 10 - - - -
30/09:00pm 10.8 WNW 7 8 1016.9 - 0.0 - - 10 - - - -
30/08:30pm 12.7 W 7 7 1016.9 - 0.0 - - 10 - - - -
30/08:00pm 12.7 W 5 5 1016.9 - 0.0 - - 10 - - - -
30/07:30pm 14.4 WSW 6 7 1016.9 - 0.0 - - 10 - - - -
30/07:00pm 14.9 NW 7 9 1016.5 - 0.0 - - 10 - - - -
30/06:30pm 17.0 WNW 7 9 1016.4 - 0.0 - - 10 - - - -
30/06:00pm 20.0 WNW 9 11 1016.3 - 0.0 - - 10 - - - -
30/05:30pm 21.6 WNW 13 18 1016.2 - 0.0 - - 10 - - - -
30/05:00pm 22.6 NW 15 21 1016.2 - 0.0 - - 10 - - - -
30/04:30pm 23.0 WNW 17 22 1016.5 - 0.0 - - 10 - - - -
30/04:00pm 23.1 WNW 16 21 1016.6 - 0.0 - - 10 - - - -
30/03:30pm 22.8 WNW 18 23 1017.1 - 0.0 - - 10 - - - -
30/03:00pm 22.8 WNW 17 24 1017.5 - 0.0 - - 10 - - - -
30/02:30pm 22.7 NW 18 25 1017.7 - 0.0 - - 10 - - - -
30/02:00pm 22.3 NW 18 24 1018.1 - 0.0 - - 10 - - - -
30/01:30pm 22.0 NW 17 25 1018.8 - 0.0 - - 10 - - - -
30/01:00pm 21.6 NW 15 22 1019.3 - 0.0 - - 10 - - - -
30/12:30pm 20.9 NW 14 21 1020.2 - 0.0 - - 10 - - - -
30/12:00pm 20.1 NNW 14 20 1020.9 - 0.0 - - 10 - - - -
30/11:30am 19.4 NW 12 17 1021.4 - 0.0 - - 10 - - - -
30/11:00am 17.9 NNW 13 16 1021.5 - 0.0 - - 10 - - - -
30/10:30am 16.4 NNW 12 15 1021.8 - 0.0 - - 10 - - - -
30/10:00am 14.2 N 11 14 1021.8 - 0.0 - - 10 - - - -
30/09:30am 11.6 NNW 9 12 1022.0 - 0.0 - - 10 - - - -
30/09:00am 8.9 NNW 9 11 1022.0 - 0.0 - - 10 - - - -
30/08:30am 6.4 N 8 10 1022.1 - 0.0 - - 10 - - - -
30/08:00am 5.2 N 9 11 1021.8 - 0.0 - - 10 - - - -
30/07:30am 5.2 N 9 10 1021.9 - 0.0 - - 10 - - - -
30/07:00am 5.2 NNW 8 10 1021.8 - 0.0 - - 10 - - - -
30/06:30am 5.1 NNW 8 9 1021.8 - 0.0 - - 10 - - - -
30/06:00am 5.1 N 8 9 1021.7 - 0.0 - Mostly clear 10 - - - -
30/05:30am 5.4 N 8 10 1021.6 - 0.0 - - 10 - - - -
30/05:00am 5.5 N 8 9 1021.3 - 0.0 - - 10 - - - -
30/04:30am 5.7 N 8 9 1021.5 - 0.0 - - 10 - - - -
30/04:00am 5.4 NNW 8 9 1021.6 - 0.0 - - 10 - - - -
30/03:30am 5.5 N 7 8 1021.7 - 0.0 - - 10 - - - -
30/03:00am 5.9 N 7 8 1021.8 - 0.0 - Mostly clear 10 - - - -
30/02:30am 6.0 N 7 8 1022.1 - 0.0 - - 10 - - - -
30/02:00am 6.2 N 7 8 1022.4 - 0.0 - - 10 - - - -
30/01:30am 6.2 N 8 8 1022.8 - 0.0 - - 10 - - - -
30/01:00am 6.7 N 7 8 1022.9 - 0.0 - - 10 - - - -
30/12:30am 6.6 NNW 8 9 1023.1 - 0.0 - - 10 - - - -
30/12:00am 7.2 NNW 8 9 1023.1 - 0.0 - Mostly clear 10 - - - -
 
Date/Time
CST
Temp

°C
Wind Pressure Rain
since 9am
mm
Weather Cloud Vis
km
Sea
Height
m
Swell
Dir
 
Speed
knots
Gust
knots
hPa Trend Height
m
Period
s
Dir
29/11:30pm 7.2 NNW 7 8 1023.2 - 0.0 - - 10 - - - -
29/11:00pm 7.9 NW 5 6 1023.4 - 0.0 - - 10 - - - -
29/10:30pm 8.3 NW 5 6 1023.4 - 0.0 - - 10 - - - -
29/10:00pm 9.4 WNW 5 5 1023.4 - 0.0 - - 10 - - - -
29/09:30pm 10.2 W 4 5 1023.3 - 0.0 - - 10 - - - -
29/09:00pm 10.9 W 4 5 1023.1 - 0.0 - Mostly clear 10 - - - -
29/08:30pm 11.3 W 4 5 1023.0 - 0.0 - - 10 - - - -
29/08:00pm 11.5 W 4 4 1022.5 - 0.0 - - 10 - - - -
29/07:30pm 11.8 W 3 4 1022.2 - 0.0 - - 10 - - - -
29/07:00pm 13.6 SW 6 7 1022.1 - 0.0 - - 10 - - - -
29/06:30pm 14.6 SW 7 7 1022.0 - 0.0 - - 10 - - - -
29/06:00pm 16.8 SW 7 9 1021.7 - 0.0 - - 10 - - - -
29/05:30pm 18.3 SW 11 13 1021.5 - 0.0 - - 10 - - - -
29/05:00pm 20.2 W 11 17 1021.2 - 0.0 - - 10 - - - -
29/04:30pm 20.7 W 13 17 1021.3 - 0.0 - - 10 - - - -
29/04:00pm 20.9 W 13 19 1021.1 - 0.0 - - 10 - - - -
29/03:30pm 21.1 WNW 13 19 1021.1 - 0.0 - - 10 - - - -
29/03:00pm 20.9 WNW 15 21 1021.1 - 0.0 - - 10 - - - -
29/02:30pm 20.9 W 13 17 1021.3 - 0.0 - - 10 - - - -
29/02:00pm 20.8 NW 12 16 1021.4 - 0.0 - - 10 - - - -
29/01:30pm 20.2 W 14 19 1021.9 - 0.0 - - 10 - - - -
29/01:00pm 20.0 WNW 14 18 1022.4 - 0.0 - - 10 - - - -
29/12:30pm 19.6 W 15 20 1022.9 - 0.0 - - 10 - - - -
29/12:00pm 19.2 W 13 19 1023.2 - 0.0 - - 10 - - - -
29/11:30am 18.6 W 13 17 1023.7 - 0.0 - - 10 - - - -
29/11:00am 17.5 WNW 11 14 1023.8 - 0.0 - - 10 - - - -
29/10:30am 16.1 WNW 9 13 1023.7 - 0.0 - - 10 - - - -
29/10:00am 14.3 WNW 10 13 1023.4 - 0.0 - - 10 - - - -
29/09:30am 12.1 WNW 9 11 1023.0 - 0.0 - - 10 - - - -
29/09:00am 9.9 NW 8 11 1022.9 - 0.0 - - 10 - - - -
29/08:30am 7.6 NNW 8 10 1022.6 - 0.0 - - 10 - - - -
29/08:00am 6.2 NW 8 11 1022.2 - 0.0 - - 10 - - - -
29/07:30am 5.9 NW 8 9 1022.0 - 0.0 - - 10 - - - -
29/07:00am 5.8 NW 7 8 1021.7 - 0.0 - - 10 - - - -
29/06:30am 6.3 NW 8 10 1021.5 - 0.0 - - 10 - - - -
29/06:00am 6.6 NW 9 10 1021.1 - 0.0 - - 10 - - - -
29/05:30am 7.0 NW 9 11 1020.7 - 0.0 - - 10 - - - -

Other Formats:

Comma delimited format used in spreadsheet applications
http://www.bom.gov.au/fwo/IDS60701/IDS60701.94651.axf

JavaScript Object Notation format (JSON) in row-major order
http://www.bom.gov.au/fwo/IDS60701/IDS60701.94651.json